sensor_id;sensor_type;location;lat;lon;timestamp;P1;durP1;ratioP1;P2;durP2;ratioP2
52946;SDS011;45776;40.400;17.260;2022-07-24T00:02:10;7.40;;;4.50;;
52946;SDS011;45776;40.400;17.260;2022-07-24T00:04:36;7.20;;;4.22;;
52946;SDS011;45776;40.400;17.260;2022-07-24T00:07:01;6.60;;;4.28;;
52946;SDS011;45776;40.400;17.260;2022-07-24T00:09:27;7.03;;;4.78;;
52946;SDS011;45776;40.400;17.260;2022-07-24T00:11:52;7.55;;;4.03;;
52946;SDS011;45776;40.400;17.260;2022-07-24T00:14:19;7.25;;;4.22;;
52946;SDS011;45776;40.400;17.260;2022-07-24T00:16:44;8.00;;;4.03;;
52946;SDS011;45776;40.400;17.260;2022-07-24T00:19:10;8.00;;;4.18;;
52946;SDS011;45776;40.400;17.260;2022-07-24T00:21:35;7.93;;;4.47;;
52946;SDS011;45776;40.400;17.260;2022-07-24T00:24:01;8.75;;;4.50;;
52946;SDS011;45776;40.400;17.260;2022-07-24T00:26:26;11.85;;;4.47;;
52946;SDS011;45776;40.400;17.260;2022-07-24T00:28:52;7.57;;;4.68;;
52946;SDS011;45776;40.400;17.260;2022-07-24T00:31:17;6.70;;;4.38;;
52946;SDS011;45776;40.400;17.260;2022-07-24T00:33:44;7.68;;;4.53;;
52946;SDS011;45776;40.400;17.260;2022-07-24T00:36:09;7.20;;;3.90;;
52946;SDS011;45776;40.400;17.260;2022-07-24T00:38:35;5.75;;;4.15;;
52946;SDS011;45776;40.400;17.260;2022-07-24T00:41:01;11.57;;;4.13;;
52946;SDS011;45776;40.400;17.260;2022-07-24T00:43:27;6.22;;;4.20;;
52946;SDS011;45776;40.400;17.260;2022-07-24T00:45:52;5.72;;;4.25;;
52946;SDS011;45776;40.400;17.260;2022-07-24T00:48:17;5.55;;;4.25;;
52946;SDS011;45776;40.400;17.260;2022-07-24T00:50:43;7.18;;;3.78;;
52946;SDS011;45776;40.400;17.260;2022-07-24T00:53:09;7.43;;;4.25;;
52946;SDS011;45776;40.400;17.260;2022-07-24T00:55:35;5.93;;;3.97;;
52946;SDS011;45776;40.400;17.260;2022-07-24T00:58:02;7.78;;;3.80;;
52946;SDS011;45776;40.400;17.260;2022-07-24T01:00:28;6.75;;;4.35;;
52946;SDS011;45776;40.400;17.260;2022-07-24T01:02:53;8.07;;;3.92;;
52946;SDS011;45776;40.400;17.260;2022-07-24T01:05:19;6.22;;;4.22;;
52946;SDS011;45776;40.400;17.260;2022-07-24T01:07:45;6.50;;;4.15;;
52946;SDS011;45776;40.400;17.260;2022-07-24T01:10:10;5.28;;;3.90;;
52946;SDS011;45776;40.400;17.260;2022-07-24T01:12:37;6.40;;;3.92;;
52946;SDS011;45776;40.400;17.260;2022-07-24T01:15:04;7.65;;;4.82;;
52946;SDS011;45776;40.400;17.260;2022-07-24T01:17:32;4.93;;;4.18;;
52946;SDS011;45776;40.400;17.260;2022-07-24T01:19:59;11.05;;;4.57;;
52946;SDS011;45776;40.400;17.260;2022-07-24T01:22:25;10.43;;;4.47;;
52946;SDS011;45776;40.400;17.260;2022-07-24T01:24:51;9.02;;;3.95;;
52946;SDS011;45776;40.400;17.260;2022-07-24T01:27:18;7.20;;;4.38;;
52946;SDS011;45776;40.400;17.260;2022-07-24T01:29:43;8.07;;;3.80;;
52946;SDS011;45776;40.400;17.260;2022-07-24T01:32:09;5.20;;;3.80;;
52946;SDS011;45776;40.400;17.260;2022-07-24T01:34:34;6.57;;;3.70;;
52946;SDS011;45776;40.400;17.260;2022-07-24T01:37:00;5.03;;;3.22;;
52946;SDS011;45776;40.400;17.260;2022-07-24T01:39:25;5.63;;;3.67;;
52946;SDS011;45776;40.400;17.260;2022-07-24T01:41:51;5.78;;;3.47;;
52946;SDS011;45776;40.400;17.260;2022-07-24T01:44:16;7.13;;;3.80;;
52946;SDS011;45776;40.400;17.260;2022-07-24T01:46:42;6.03;;;3.75;;
52946;SDS011;45776;40.400;17.260;2022-07-24T01:49:08;6.55;;;3.63;;
52946;SDS011;45776;40.400;17.260;2022-07-24T01:51:33;5.85;;;4.00;;
52946;SDS011;45776;40.400;17.260;2022-07-24T01:53:59;7.30;;;4.13;;
52946;SDS011;45776;40.400;17.260;2022-07-24T01:56:24;8.65;;;4.20;;
52946;SDS011;45776;40.400;17.260;2022-07-24T01:58:50;8.02;;;4.10;;
52946;SDS011;45776;40.400;17.260;2022-07-24T02:01:15;6.30;;;4.50;;
52946;SDS011;45776;40.400;17.260;2022-07-24T02:03:41;8.98;;;4.47;;
52946;SDS011;45776;40.400;17.260;2022-07-24T02:06:06;8.73;;;4.22;;
52946;SDS011;45776;40.400;17.260;2022-07-24T02:08:32;5.88;;;4.18;;
52946;SDS011;45776;40.400;17.260;2022-07-24T02:10:57;5.70;;;4.25;;
52946;SDS011;45776;40.400;17.260;2022-07-24T02:13:23;5.35;;;4.30;;
52946;SDS011;45776;40.400;17.260;2022-07-24T02:15:51;5.63;;;4.15;;
52946;SDS011;45776;40.400;17.260;2022-07-24T02:18:17;8.63;;;4.80;;
52946;SDS011;45776;40.400;17.260;2022-07-24T02:20:42;6.90;;;4.28;;
52946;SDS011;45776;40.400;17.260;2022-07-24T02:23:08;4.40;;;4.00;;
52946;SDS011;45776;40.400;17.260;2022-07-24T02:25:33;6.88;;;3.80;;
52946;SDS011;45776;40.400;17.260;2022-07-24T02:27:59;6.95;;;4.45;;
52946;SDS011;45776;40.400;17.260;2022-07-24T02:30:24;13.48;;;4.78;;
52946;SDS011;45776;40.400;17.260;2022-07-24T02:32:50;6.60;;;4.47;;
52946;SDS011;45776;40.400;17.260;2022-07-24T02:35:16;6.40;;;3.90;;
52946;SDS011;45776;40.400;17.260;2022-07-24T02:37:43;7.03;;;4.28;;
52946;SDS011;45776;40.400;17.260;2022-07-24T02:40:09;5.07;;;4.43;;
52946;SDS011;45776;40.400;17.260;2022-07-24T02:42:36;6.25;;;4.20;;
52946;SDS011;45776;40.400;17.260;2022-07-24T02:45:03;7.50;;;4.03;;
52946;SDS011;45776;40.400;17.260;2022-07-24T02:47:30;6.25;;;4.80;;
52946;SDS011;45776;40.400;17.260;2022-07-24T02:49:56;7.15;;;4.38;;
52946;SDS011;45776;40.400;17.260;2022-07-24T02:52:22;4.88;;;4.38;;
52946;SDS011;45776;40.400;17.260;2022-07-24T02:54:47;5.55;;;4.32;;
52946;SDS011;45776;40.400;17.260;2022-07-24T02:57:13;7.00;;;4.47;;
52946;SDS011;45776;40.400;17.260;2022-07-24T02:59:38;5.78;;;4.57;;
52946;SDS011;45776;40.400;17.260;2022-07-24T03:02:04;5.25;;;4.43;;
52946;SDS011;45776;40.400;17.260;2022-07-24T03:04:29;8.50;;;4.50;;
52946;SDS011;45776;40.400;17.260;2022-07-24T03:06:55;8.90;;;4.65;;
52946;SDS011;45776;40.400;17.260;2022-07-24T03:09:20;8.05;;;5.15;;
52946;SDS011;45776;40.400;17.260;2022-07-24T03:11:46;7.65;;;4.93;;
52946;SDS011;45776;40.400;17.260;2022-07-24T03:14:11;7.70;;;5.20;;
52946;SDS011;45776;40.400;17.260;2022-07-24T03:16:36;7.72;;;5.65;;
52946;SDS011;45776;40.400;17.260;2022-07-24T03:19:02;8.00;;;5.20;;
52946;SDS011;45776;40.400;17.260;2022-07-24T03:21:28;7.32;;;5.30;;
52946;SDS011;45776;40.400;17.260;2022-07-24T03:23:53;6.72;;;5.38;;
52946;SDS011;45776;40.400;17.260;2022-07-24T03:26:19;7.78;;;6.47;;
52946;SDS011;45776;40.400;17.260;2022-07-24T03:28:44;8.52;;;5.75;;
52946;SDS011;45776;40.400;17.260;2022-07-24T03:31:10;7.97;;;6.05;;
52946;SDS011;45776;40.400;17.260;2022-07-24T03:33:35;7.40;;;6.18;;
52946;SDS011;45776;40.400;17.260;2022-07-24T03:36:01;8.93;;;6.53;;
52946;SDS011;45776;40.400;17.260;2022-07-24T03:38:26;6.75;;;5.90;;
52946;SDS011;45776;40.400;17.260;2022-07-24T03:40:52;10.95;;;6.50;;
52946;SDS011;45776;40.400;17.260;2022-07-24T03:43:17;8.80;;;6.40;;
52946;SDS011;45776;40.400;17.260;2022-07-24T03:45:43;9.10;;;6.30;;
52946;SDS011;45776;40.400;17.260;2022-07-24T03:48:09;6.65;;;5.95;;
52946;SDS011;45776;40.400;17.260;2022-07-24T03:50:35;7.75;;;6.07;;
52946;SDS011;45776;40.400;17.260;2022-07-24T03:53:01;8.60;;;6.13;;
52946;SDS011;45776;40.400;17.260;2022-07-24T03:55:26;7.03;;;6.30;;
52946;SDS011;45776;40.400;17.260;2022-07-24T03:57:52;9.38;;;5.95;;
52946;SDS011;45776;40.400;17.260;2022-07-24T04:00:17;6.22;;;5.63;;
52946;SDS011;45776;40.400;17.260;2022-07-24T04:02:43;6.82;;;5.85;;
52946;SDS011;45776;40.400;17.260;2022-07-24T04:05:09;9.88;;;6.47;;
52946;SDS011;45776;40.400;17.260;2022-07-24T04:07:38;7.43;;;5.97;;
52946;SDS011;45776;40.400;17.260;2022-07-24T04:10:04;6.28;;;5.57;;
52946;SDS011;45776;40.400;17.260;2022-07-24T04:12:32;8.25;;;6.00;;
52946;SDS011;45776;40.400;17.260;2022-07-24T04:14:57;9.25;;;6.07;;
52946;SDS011;45776;40.400;17.260;2022-07-24T04:17:23;7.90;;;5.82;;
52946;SDS011;45776;40.400;17.260;2022-07-24T04:19:48;8.70;;;6.00;;
52946;SDS011;45776;40.400;17.260;2022-07-24T04:22:14;8.82;;;6.28;;
52946;SDS011;45776;40.400;17.260;2022-07-24T04:24:39;7.03;;;5.50;;
52946;SDS011;45776;40.400;17.260;2022-07-24T04:27:05;9.55;;;5.63;;
52946;SDS011;45776;40.400;17.260;2022-07-24T04:29:31;9.75;;;6.18;;
52946;SDS011;45776;40.400;17.260;2022-07-24T04:31:56;12.40;;;5.82;;
52946;SDS011;45776;40.400;17.260;2022-07-24T04:34:22;8.25;;;5.55;;
52946;SDS011;45776;40.400;17.260;2022-07-24T04:36:48;12.80;;;5.88;;
52946;SDS011;45776;40.400;17.260;2022-07-24T04:39:13;7.03;;;5.57;;
52946;SDS011;45776;40.400;17.260;2022-07-24T04:41:39;10.52;;;5.70;;
52946;SDS011;45776;40.400;17.260;2022-07-24T04:44:05;10.00;;;5.60;;
52946;SDS011;45776;40.400;17.260;2022-07-24T04:46:31;7.05;;;6.07;;
52946;SDS011;45776;40.400;17.260;2022-07-24T04:48:56;10.70;;;5.70;;
52946;SDS011;45776;40.400;17.260;2022-07-24T04:51:22;13.57;;;5.80;;
52946;SDS011;45776;40.400;17.260;2022-07-24T04:53:47;13.35;;;5.65;;
52946;SDS011;45776;40.400;17.260;2022-07-24T04:56:13;14.15;;;5.90;;
52946;SDS011;45776;40.400;17.260;2022-07-24T04:58:39;13.10;;;5.82;;
52946;SDS011;45776;40.400;17.260;2022-07-24T05:01:04;10.32;;;5.70;;
52946;SDS011;45776;40.400;17.260;2022-07-24T05:03:30;14.23;;;6.05;;
52946;SDS011;45776;40.400;17.260;2022-07-24T05:05:55;9.02;;;5.03;;
52946;SDS011;45776;40.400;17.260;2022-07-24T05:08:21;9.10;;;4.97;;
52946;SDS011;45776;40.400;17.260;2022-07-24T05:10:46;10.05;;;4.82;;
52946;SDS011;45776;40.400;17.260;2022-07-24T05:13:12;8.50;;;4.82;;
52946;SDS011;45776;40.400;17.260;2022-07-24T05:15:37;7.78;;;4.88;;
52946;SDS011;45776;40.400;17.260;2022-07-24T05:18:03;13.55;;;5.40;;
52946;SDS011;45776;40.400;17.260;2022-07-24T05:20:29;8.52;;;5.55;;
52946;SDS011;45776;40.400;17.260;2022-07-24T05:22:54;10.07;;;5.22;;
52946;SDS011;45776;40.400;17.260;2022-07-24T05:25:20;8.35;;;5.13;;
52946;SDS011;45776;40.400;17.260;2022-07-24T05:27:45;11.85;;;5.10;;
52946;SDS011;45776;40.400;17.260;2022-07-24T05:30:11;10.05;;;4.93;;
52946;SDS011;45776;40.400;17.260;2022-07-24T05:32:36;6.75;;;4.65;;
52946;SDS011;45776;40.400;17.260;2022-07-24T05:35:02;8.82;;;4.82;;
52946;SDS011;45776;40.400;17.260;2022-07-24T05:37:28;7.90;;;5.47;;
52946;SDS011;45776;40.400;17.260;2022-07-24T05:39:54;6.88;;;4.97;;
52946;SDS011;45776;40.400;17.260;2022-07-24T05:42:19;7.82;;;5.68;;
52946;SDS011;45776;40.400;17.260;2022-07-24T05:44:45;7.65;;;5.53;;
52946;SDS011;45776;40.400;17.260;2022-07-24T05:47:10;8.48;;;5.97;;
52946;SDS011;45776;40.400;17.260;2022-07-24T05:49:36;8.30;;;5.57;;
52946;SDS011;45776;40.400;17.260;2022-07-24T05:52:01;8.98;;;5.63;;
52946;SDS011;45776;40.400;17.260;2022-07-24T05:54:27;7.43;;;5.88;;
52946;SDS011;45776;40.400;17.260;2022-07-24T05:56:53;12.88;;;6.03;;
52946;SDS011;45776;40.400;17.260;2022-07-24T05:59:19;7.25;;;5.57;;
52946;SDS011;45776;40.400;17.260;2022-07-24T06:01:44;8.18;;;5.70;;
52946;SDS011;45776;40.400;17.260;2022-07-24T06:04:10;7.82;;;5.50;;
52946;SDS011;45776;40.400;17.260;2022-07-24T06:06:35;9.40;;;5.68;;
52946;SDS011;45776;40.400;17.260;2022-07-24T06:09:01;5.88;;;5.28;;
52946;SDS011;45776;40.400;17.260;2022-07-24T06:11:27;5.35;;;4.85;;
52946;SDS011;45776;40.400;17.260;2022-07-24T06:13:52;5.88;;;4.38;;
52946;SDS011;45776;40.400;17.260;2022-07-24T06:16:18;4.85;;;4.32;;
52946;SDS011;45776;40.400;17.260;2022-07-24T06:18:44;5.13;;;4.03;;
52946;SDS011;45776;40.400;17.260;2022-07-24T06:21:09;6.57;;;4.38;;
52946;SDS011;45776;40.400;17.260;2022-07-24T06:23:35;6.18;;;5.03;;
52946;SDS011;45776;40.400;17.260;2022-07-24T06:26:00;7.60;;;5.43;;
52946;SDS011;45776;40.400;17.260;2022-07-24T06:28:26;6.78;;;4.55;;
52946;SDS011;45776;40.400;17.260;2022-07-24T06:30:51;6.35;;;3.95;;
52946;SDS011;45776;40.400;17.260;2022-07-24T06:33:17;5.93;;;4.43;;
52946;SDS011;45776;40.400;17.260;2022-07-24T06:35:42;5.30;;;4.78;;
52946;SDS011;45776;40.400;17.260;2022-07-24T06:38:08;6.13;;;4.90;;
52946;SDS011;45776;40.400;17.260;2022-07-24T06:40:34;11.23;;;5.03;;
52946;SDS011;45776;40.400;17.260;2022-07-24T06:43:02;6.90;;;4.63;;
52946;SDS011;45776;40.400;17.260;2022-07-24T06:45:28;9.77;;;5.45;;
52946;SDS011;45776;40.400;17.260;2022-07-24T06:47:56;6.88;;;4.38;;
52946;SDS011;45776;40.400;17.260;2022-07-24T06:50:21;6.55;;;5.90;;
52946;SDS011;45776;40.400;17.260;2022-07-24T06:52:47;5.88;;;4.70;;
52946;SDS011;45776;40.400;17.260;2022-07-24T06:55:12;7.30;;;4.85;;
52946;SDS011;45776;40.400;17.260;2022-07-24T06:57:38;6.93;;;4.55;;
52946;SDS011;45776;40.400;17.260;2022-07-24T07:00:07;8.07;;;4.47;;
52946;SDS011;45776;40.400;17.260;2022-07-24T07:02:34;7.93;;;4.55;;
52946;SDS011;45776;40.400;17.260;2022-07-24T07:05:00;6.70;;;5.32;;
52946;SDS011;45776;40.400;17.260;2022-07-24T07:07:26;6.28;;;4.95;;
52946;SDS011;45776;40.400;17.260;2022-07-24T07:09:51;7.80;;;5.20;;
52946;SDS011;45776;40.400;17.260;2022-07-24T07:12:17;6.95;;;5.28;;
52946;SDS011;45776;40.400;17.260;2022-07-24T07:14:42;7.20;;;5.22;;
52946;SDS011;45776;40.400;17.260;2022-07-24T07:17:08;7.93;;;5.53;;
52946;SDS011;45776;40.400;17.260;2022-07-24T07:19:33;7.85;;;5.05;;
52946;SDS011;45776;40.400;17.260;2022-07-24T07:21:59;6.20;;;5.45;;
52946;SDS011;45776;40.400;17.260;2022-07-24T07:24:24;9.13;;;5.50;;
52946;SDS011;45776;40.400;17.260;2022-07-24T07:26:50;7.03;;;5.18;;
52946;SDS011;45776;40.400;17.260;2022-07-24T07:29:15;7.00;;;5.20;;
52946;SDS011;45776;40.400;17.260;2022-07-24T07:31:41;7.60;;;5.82;;
52946;SDS011;45776;40.400;17.260;2022-07-24T07:34:06;5.95;;;4.82;;
52946;SDS011;45776;40.400;17.260;2022-07-24T07:36:32;7.47;;;5.13;;
52946;SDS011;45776;40.400;17.260;2022-07-24T07:38:59;6.72;;;5.53;;
52946;SDS011;45776;40.400;17.260;2022-07-24T07:41:24;7.97;;;5.35;;
52946;SDS011;45776;40.400;17.260;2022-07-24T07:43:50;7.97;;;5.50;;
52946;SDS011;45776;40.400;17.260;2022-07-24T07:46:15;8.25;;;5.72;;
52946;SDS011;45776;40.400;17.260;2022-07-24T07:48:41;7.70;;;5.97;;
52946;SDS011;45776;40.400;17.260;2022-07-24T07:51:07;7.07;;;6.20;;
52946;SDS011;45776;40.400;17.260;2022-07-24T07:53:33;9.60;;;6.18;;
52946;SDS011;45776;40.400;17.260;2022-07-24T07:55:58;10.02;;;6.68;;
52946;SDS011;45776;40.400;17.260;2022-07-24T07:58:24;10.27;;;7.13;;
52946;SDS011;45776;40.400;17.260;2022-07-24T08:00:51;8.88;;;6.57;;
52946;SDS011;45776;40.400;17.260;2022-07-24T08:03:17;8.57;;;6.72;;
52946;SDS011;45776;40.400;17.260;2022-07-24T08:05:42;8.95;;;6.22;;
52946;SDS011;45776;40.400;17.260;2022-07-24T08:08:08;13.13;;;7.35;;
52946;SDS011;45776;40.400;17.260;2022-07-24T08:10:33;8.38;;;6.45;;
52946;SDS011;45776;40.400;17.260;2022-07-24T08:12:59;10.40;;;7.13;;
52946;SDS011;45776;40.400;17.260;2022-07-24T08:15:24;10.50;;;6.90;;
52946;SDS011;45776;40.400;17.260;2022-07-24T08:17:51;8.73;;;6.82;;
52946;SDS011;45776;40.400;17.260;2022-07-24T08:20:21;8.95;;;7.07;;
52946;SDS011;45776;40.400;17.260;2022-07-24T08:22:47;10.45;;;7.72;;
52946;SDS011;45776;40.400;17.260;2022-07-24T08:25:13;11.32;;;7.68;;
52946;SDS011;45776;40.400;17.260;2022-07-24T08:27:39;9.32;;;7.40;;
52946;SDS011;45776;40.400;17.260;2022-07-24T08:30:06;10.30;;;7.93;;
52946;SDS011;45776;40.400;17.260;2022-07-24T08:32:33;10.73;;;7.60;;
52946;SDS011;45776;40.400;17.260;2022-07-24T08:34:59;10.13;;;7.43;;
52946;SDS011;45776;40.400;17.260;2022-07-24T08:37:25;10.43;;;7.50;;
52946;SDS011;45776;40.400;17.260;2022-07-24T08:39:51;10.68;;;7.93;;
52946;SDS011;45776;40.400;17.260;2022-07-24T08:42:16;8.65;;;7.25;;
52946;SDS011;45776;40.400;17.260;2022-07-24T08:44:42;9.23;;;7.40;;
52946;SDS011;45776;40.400;17.260;2022-07-24T08:47:07;11.80;;;7.72;;
52946;SDS011;45776;40.400;17.260;2022-07-24T08:49:34;10.43;;;6.97;;
52946;SDS011;45776;40.400;17.260;2022-07-24T08:52:02;9.40;;;6.80;;
52946;SDS011;45776;40.400;17.260;2022-07-24T08:54:33;11.73;;;7.75;;
52946;SDS011;45776;40.400;17.260;2022-07-24T08:56:59;11.90;;;7.82;;
52946;SDS011;45776;40.400;17.260;2022-07-24T08:59:25;10.38;;;8.38;;
52946;SDS011;45776;40.400;17.260;2022-07-24T09:01:51;11.25;;;7.43;;
52946;SDS011;45776;40.400;17.260;2022-07-24T09:07:26;10.65;;;7.15;;
52946;SDS011;45776;40.400;17.260;2022-07-24T09:10:00;9.23;;;7.30;;
52946;SDS011;45776;40.400;17.260;2022-07-24T09:12:46;10.85;;;7.43;;
52946;SDS011;45776;40.400;17.260;2022-07-24T09:17:46;9.57;;;7.75;;
52946;SDS011;45776;40.400;17.260;2022-07-24T09:20:13;11.80;;;7.90;;
52946;SDS011;45776;40.400;17.260;2022-07-24T09:22:40;9.65;;;8.18;;
52946;SDS011;45776;40.400;17.260;2022-07-24T09:25:07;9.93;;;6.95;;
52946;SDS011;45776;40.400;17.260;2022-07-24T09:27:37;9.60;;;7.10;;
52946;SDS011;45776;40.400;17.260;2022-07-24T09:35:29;9.07;;;7.00;;
52946;SDS011;45776;40.400;17.260;2022-07-24T09:37:59;10.30;;;7.60;;
52946;SDS011;45776;40.400;17.260;2022-07-24T09:40:31;12.70;;;7.07;;
52946;SDS011;45776;40.400;17.260;2022-07-24T09:43:11;15.63;;;7.38;;
52946;SDS011;45776;40.400;17.260;2022-07-24T09:48:52;11.13;;;7.40;;
52946;SDS011;45776;40.400;17.260;2022-07-24T09:51:19;9.93;;;6.72;;
52946;SDS011;45776;40.400;17.260;2022-07-24T09:53:46;10.20;;;7.00;;
52946;SDS011;45776;40.400;17.260;2022-07-24T09:56:17;8.43;;;7.00;;
52946;SDS011;45776;40.400;17.260;2022-07-24T10:01:12;9.05;;;7.25;;
52946;SDS011;45776;40.400;17.260;2022-07-24T10:03:40;10.82;;;7.03;;
52946;SDS011;45776;40.400;17.260;2022-07-24T10:06:08;9.80;;;7.15;;
52946;SDS011;45776;40.400;17.260;2022-07-24T10:08:38;10.30;;;7.05;;
52946;SDS011;45776;40.400;17.260;2022-07-24T10:11:06;9.05;;;7.60;;
52946;SDS011;45776;40.400;17.260;2022-07-24T10:13:33;11.23;;;7.00;;
52946;SDS011;45776;40.400;17.260;2022-07-24T10:21:18;10.35;;;6.90;;
52946;SDS011;45776;40.400;17.260;2022-07-24T10:26:15;7.35;;;6.45;;
52946;SDS011;45776;40.400;17.260;2022-07-24T10:29:20;10.68;;;7.35;;
52946;SDS011;45776;40.400;17.260;2022-07-24T10:31:49;8.00;;;7.20;;
52946;SDS011;45776;40.400;17.260;2022-07-24T10:45:41;7.30;;;6.13;;
52946;SDS011;45776;40.400;17.260;2022-07-24T10:48:32;7.28;;;6.22;;
52946;SDS011;45776;40.400;17.260;2022-07-24T10:53:24;8.38;;;6.47;;
52946;SDS011;45776;40.400;17.260;2022-07-24T10:55:51;6.38;;;5.78;;
52946;SDS011;45776;40.400;17.260;2022-07-24T10:58:17;9.13;;;6.55;;
52946;SDS011;45776;40.400;17.260;2022-07-24T11:00:51;10.30;;;6.30;;
52946;SDS011;45776;40.400;17.260;2022-07-24T11:06:05;8.55;;;6.28;;
52946;SDS011;45776;40.400;17.260;2022-07-24T11:11:08;8.18;;;6.40;;
52946;SDS011;45776;40.400;17.260;2022-07-24T11:18:36;6.90;;;6.10;;
52946;SDS011;45776;40.400;17.260;2022-07-24T11:21:02;8.18;;;6.80;;
52946;SDS011;45776;40.400;17.260;2022-07-24T11:23:29;7.65;;;6.10;;
52946;SDS011;45776;40.400;17.260;2022-07-24T11:29:11;8.13;;;6.20;;
52946;SDS011;45776;40.400;17.260;2022-07-24T11:31:46;10.93;;;7.15;;
52946;SDS011;45776;40.400;17.260;2022-07-24T11:34:12;10.02;;;7.38;;
52946;SDS011;45776;40.400;17.260;2022-07-24T11:36:45;9.23;;;7.43;;
52946;SDS011;45776;40.400;17.260;2022-07-24T11:39:16;11.25;;;6.70;;
52946;SDS011;45776;40.400;17.260;2022-07-24T11:44:13;8.98;;;6.78;;
52946;SDS011;45776;40.400;17.260;2022-07-24T11:46:46;9.77;;;6.95;;
52946;SDS011;45776;40.400;17.260;2022-07-24T11:49:11;11.45;;;6.72;;
52946;SDS011;45776;40.400;17.260;2022-07-24T11:51:40;9.23;;;6.72;;
52946;SDS011;45776;40.400;17.260;2022-07-24T11:54:13;9.02;;;6.47;;
52946;SDS011;45776;40.400;17.260;2022-07-24T11:56:45;6.93;;;5.60;;
52946;SDS011;45776;40.400;17.260;2022-07-24T11:59:27;7.32;;;6.32;;
52946;SDS011;45776;40.400;17.260;2022-07-24T12:02:16;7.03;;;6.22;;
52946;SDS011;45776;40.400;17.260;2022-07-24T12:04:41;7.38;;;6.20;;
52946;SDS011;45776;40.400;17.260;2022-07-24T12:07:07;6.75;;;5.70;;
52946;SDS011;45776;40.400;17.260;2022-07-24T12:12:20;9.60;;;6.25;;
52946;SDS011;45776;40.400;17.260;2022-07-24T12:14:52;8.65;;;5.82;;
52946;SDS011;45776;40.400;17.260;2022-07-24T12:17:25;7.72;;;5.60;;
52946;SDS011;45776;40.400;17.260;2022-07-24T12:19:52;8.15;;;5.78;;
52946;SDS011;45776;40.400;17.260;2022-07-24T12:22:19;9.85;;;5.90;;
52946;SDS011;45776;40.400;17.260;2022-07-24T12:24:46;7.68;;;5.63;;
52946;SDS011;45776;40.400;17.260;2022-07-24T12:27:12;9.13;;;6.32;;
52946;SDS011;45776;40.400;17.260;2022-07-24T12:30:01;7.47;;;5.80;;
52946;SDS011;45776;40.400;17.260;2022-07-24T12:32:27;7.90;;;6.10;;
52946;SDS011;45776;40.400;17.260;2022-07-24T12:34:53;7.38;;;6.10;;
52946;SDS011;45776;40.400;17.260;2022-07-24T12:37:20;8.35;;;5.55;;
52946;SDS011;45776;40.400;17.260;2022-07-24T12:39:51;6.68;;;5.97;;
52946;SDS011;45776;40.400;17.260;2022-07-24T12:42:27;7.28;;;6.00;;
52946;SDS011;45776;40.400;17.260;2022-07-24T12:45:05;11.07;;;6.22;;
52946;SDS011;45776;40.400;17.260;2022-07-24T12:50:37;6.47;;;5.20;;
52946;SDS011;45776;40.400;17.260;2022-07-24T12:53:04;6.60;;;5.90;;
52946;SDS011;45776;40.400;17.260;2022-07-24T12:55:31;7.95;;;6.00;;
52946;SDS011;45776;40.400;17.260;2022-07-24T12:57:58;6.72;;;5.75;;
52946;SDS011;45776;40.400;17.260;2022-07-24T13:00:25;7.05;;;5.40;;
52946;SDS011;45776;40.400;17.260;2022-07-24T13:02:51;6.47;;;5.00;;
52946;SDS011;45776;40.400;17.260;2022-07-24T13:05:35;6.85;;;5.00;;
52946;SDS011;45776;40.400;17.260;2022-07-24T13:08:01;5.57;;;4.95;;
52946;SDS011;45776;40.400;17.260;2022-07-24T13:10:27;8.02;;;5.50;;
52946;SDS011;45776;40.400;17.260;2022-07-24T13:12:52;10.23;;;5.30;;
52946;SDS011;45776;40.400;17.260;2022-07-24T13:15:18;7.63;;;5.13;;
52946;SDS011;45776;40.400;17.260;2022-07-24T13:17:43;7.60;;;5.45;;
52946;SDS011;45776;40.400;17.260;2022-07-24T13:20:09;6.53;;;5.28;;
52946;SDS011;45776;40.400;17.260;2022-07-24T13:22:35;6.25;;;5.28;;
52946;SDS011;45776;40.400;17.260;2022-07-24T13:25:00;7.40;;;5.07;;
52946;SDS011;45776;40.400;17.260;2022-07-24T13:27:26;6.13;;;4.95;;
52946;SDS011;45776;40.400;17.260;2022-07-24T13:29:52;10.05;;;6.00;;
52946;SDS011;45776;40.400;17.260;2022-07-24T13:32:17;7.63;;;5.57;;
52946;SDS011;45776;40.400;17.260;2022-07-24T13:34:43;9.95;;;5.13;;
52946;SDS011;45776;40.400;17.260;2022-07-24T13:37:08;9.00;;;6.20;;
52946;SDS011;45776;40.400;17.260;2022-07-24T13:39:34;6.40;;;5.35;;
52946;SDS011;45776;40.400;17.260;2022-07-24T13:42:02;6.40;;;5.20;;
52946;SDS011;45776;40.400;17.260;2022-07-24T13:44:28;8.95;;;5.75;;
52946;SDS011;45776;40.400;17.260;2022-07-24T13:46:53;10.25;;;5.53;;
52946;SDS011;45776;40.400;17.260;2022-07-24T13:49:19;6.00;;;5.40;;
52946;SDS011;45776;40.400;17.260;2022-07-24T13:51:44;11.15;;;6.03;;
52946;SDS011;45776;40.400;17.260;2022-07-24T13:54:12;6.95;;;5.15;;
52946;SDS011;45776;40.400;17.260;2022-07-24T13:56:38;7.72;;;5.15;;
52946;SDS011;45776;40.400;17.260;2022-07-24T13:59:03;7.35;;;5.43;;
52946;SDS011;45776;40.400;17.260;2022-07-24T14:01:29;7.88;;;5.20;;
52946;SDS011;45776;40.400;17.260;2022-07-24T14:03:54;11.45;;;5.70;;
52946;SDS011;45776;40.400;17.260;2022-07-24T14:06:20;9.88;;;6.10;;
52946;SDS011;45776;40.400;17.260;2022-07-24T14:08:46;8.70;;;5.65;;
52946;SDS011;45776;40.400;17.260;2022-07-24T14:11:11;7.25;;;5.28;;
52946;SDS011;45776;40.400;17.260;2022-07-24T14:13:37;16.65;;;5.60;;
52946;SDS011;45776;40.400;17.260;2022-07-24T14:16:02;11.70;;;5.43;;
52946;SDS011;45776;40.400;17.260;2022-07-24T14:18:28;10.40;;;5.43;;
52946;SDS011;45776;40.400;17.260;2022-07-24T14:20:53;6.95;;;5.13;;
52946;SDS011;45776;40.400;17.260;2022-07-24T14:23:19;9.13;;;5.55;;
52946;SDS011;45776;40.400;17.260;2022-07-24T14:25:44;10.98;;;5.65;;
52946;SDS011;45776;40.400;17.260;2022-07-24T14:28:10;14.65;;;5.50;;
52946;SDS011;45776;40.400;17.260;2022-07-24T14:30:36;10.80;;;5.53;;
52946;SDS011;45776;40.400;17.260;2022-07-24T14:33:02;7.03;;;5.60;;
52946;SDS011;45776;40.400;17.260;2022-07-24T14:35:28;7.15;;;5.35;;
52946;SDS011;45776;40.400;17.260;2022-07-24T14:37:55;13.13;;;5.78;;
52946;SDS011;45776;40.400;17.260;2022-07-24T14:40:22;11.45;;;5.72;;
52946;SDS011;45776;40.400;17.260;2022-07-24T14:42:47;8.50;;;5.68;;
52946;SDS011;45776;40.400;17.260;2022-07-24T14:45:13;9.98;;;6.18;;
52946;SDS011;45776;40.400;17.260;2022-07-24T14:47:38;8.63;;;5.90;;
52946;SDS011;45776;40.400;17.260;2022-07-24T14:50:05;7.65;;;5.80;;
52946;SDS011;45776;40.400;17.260;2022-07-24T14:52:32;6.78;;;5.70;;
52946;SDS011;45776;40.400;17.260;2022-07-24T14:54:58;7.05;;;6.00;;
52946;SDS011;45776;40.400;17.260;2022-07-24T14:57:24;7.85;;;5.85;;
52946;SDS011;45776;40.400;17.260;2022-07-24T14:59:50;9.60;;;5.47;;
52946;SDS011;45776;40.400;17.260;2022-07-24T15:02:16;8.32;;;6.03;;
52946;SDS011;45776;40.400;17.260;2022-07-24T15:04:41;10.57;;;6.10;;
52946;SDS011;45776;40.400;17.260;2022-07-24T15:07:07;7.35;;;5.95;;
52946;SDS011;45776;40.400;17.260;2022-07-24T15:09:33;7.05;;;6.15;;
52946;SDS011;45776;40.400;17.260;2022-07-24T15:11:59;8.25;;;5.95;;
52946;SDS011;45776;40.400;17.260;2022-07-24T15:14:24;6.70;;;5.68;;
52946;SDS011;45776;40.400;17.260;2022-07-24T15:16:50;7.90;;;5.80;;
52946;SDS011;45776;40.400;17.260;2022-07-24T15:19:15;7.13;;;6.10;;
52946;SDS011;45776;40.400;17.260;2022-07-24T15:21:41;6.38;;;5.50;;
52946;SDS011;45776;40.400;17.260;2022-07-24T15:24:07;6.68;;;5.85;;
52946;SDS011;45776;40.400;17.260;2022-07-24T15:26:33;8.60;;;5.65;;
52946;SDS011;45776;40.400;17.260;2022-07-24T15:28:59;8.98;;;6.20;;